createdAt,value
2019-01-02T00:02:24.222Z,24.17
2019-01-02T00:04:55.775Z,31.83
2019-01-02T00:07:26.604Z,22.63
2019-01-02T00:09:57.092Z,29.33
2019-01-02T00:12:28.778Z,32.23
2019-01-02T00:14:59.258Z,28.57
2019-01-02T00:17:29.675Z,35.80
2019-01-02T00:20:00.355Z,32.03
2019-01-02T00:22:30.744Z,25.27
2019-01-02T00:25:01.383Z,29.70
2019-01-02T00:27:31.764Z,35.53
2019-01-02T00:30:01.988Z,26.27
2019-01-02T00:32:32.422Z,26.53
2019-01-02T00:35:02.943Z,33.40
2019-01-02T00:37:33.744Z,30.00
2019-01-02T00:40:04.371Z,33.20
2019-01-02T00:42:35.104Z,36.77
2019-01-02T00:45:06.245Z,26.77
2019-01-02T00:47:36.960Z,37.10
2019-01-02T00:50:09.689Z,33.60
2019-01-02T00:52:40.435Z,32.77
2019-01-02T00:55:10.863Z,26.03
2019-01-02T00:57:41.663Z,34.13
2019-01-02T01:00:21.166Z,30.07
2019-01-02T01:02:51.886Z,41.70
2019-01-02T01:05:22.298Z,24.07
2019-01-02T01:07:55.511Z,29.33
2019-01-02T01:10:25.751Z,29.50
2019-01-02T01:12:56.054Z,21.67
2019-01-02T01:15:26.887Z,27.30
2019-01-02T01:17:57.345Z,36.33
2019-01-02T01:20:27.669Z,22.13
2019-01-02T01:22:57.909Z,29.50
2019-01-02T01:25:28.537Z,25.43
2019-01-02T01:27:58.853Z,32.10
2019-01-02T01:30:30.680Z,24.73
2019-01-02T01:33:01.045Z,38.90
2019-01-02T01:35:34.014Z,21.43
2019-01-02T01:38:04.481Z,32.37
2019-01-02T01:40:34.864Z,30.73
2019-01-02T01:43:05.264Z,26.17
2019-01-02T01:45:36.039Z,34.40
2019-01-02T01:48:06.428Z,25.90
2019-01-02T01:50:36.824Z,34.77
2019-01-02T01:53:07.535Z,34.83
2019-01-02T01:55:37.984Z,27.27
2019-01-02T01:58:08.280Z,27.57
2019-01-02T02:00:38.682Z,21.20
2019-01-02T02:03:09.197Z,31.27
2019-01-02T02:05:39.908Z,38.03
2019-01-02T02:08:10.645Z,31.37
2019-01-02T02:10:41.137Z,39.67
2019-01-02T02:13:11.823Z,32.57
2019-01-02T02:15:42.329Z,32.53
2019-01-02T02:18:13.469Z,30.77
2019-01-02T02:20:45.863Z,38.27
2019-01-02T02:23:16.243Z,31.07
2019-01-02T02:25:46.992Z,29.43
2019-01-02T02:28:17.503Z,29.60
2019-01-02T02:30:48.024Z,28.17
2019-01-02T02:33:18.830Z,31.60
2019-01-02T02:35:49.801Z,26.63
2019-01-02T02:38:20.857Z,29.77
2019-01-02T02:40:52.410Z,32.07
2019-01-02T02:43:22.851Z,30.23
2019-01-02T02:45:53.516Z,36.83
2019-01-02T02:48:24.326Z,36.17
2019-01-02T02:50:54.921Z,29.70
2019-01-02T02:53:25.551Z,30.73
2019-01-02T02:55:56.379Z,33.03
2019-01-02T02:58:27.080Z,33.77
2019-01-02T03:00:57.748Z,20.47
2019-01-02T03:06:08.581Z,26.30
2019-01-02T03:08:38.955Z,18.10
2019-01-02T03:11:09.298Z,26.27
2019-01-02T03:13:40.399Z,25.47
2019-01-02T03:16:11.093Z,31.60
2019-01-02T03:18:41.891Z,27.17
2019-01-02T03:21:12.296Z,29.47
2019-01-02T03:23:42.718Z,27.40
2019-01-02T03:26:14.294Z,27.87
2019-01-02T03:28:44.746Z,30.50
2019-01-02T03:31:15.455Z,36.57
2019-01-02T03:33:46.166Z,24.47
2019-01-02T03:36:16.618Z,17.87
2019-01-02T03:38:46.948Z,25.77
2019-01-02T03:41:17.373Z,22.70
2019-01-02T03:43:47.764Z,25.27
2019-01-02T03:46:18.074Z,31.43
2019-01-02T03:48:48.564Z,39.77
2019-01-02T03:51:19.063Z,23.00
2019-01-02T03:53:49.615Z,27.43
2019-01-02T03:56:19.945Z,34.80
2019-01-02T03:58:50.324Z,26.50
2019-01-02T04:01:22.305Z,36.37
2019-01-02T04:03:52.731Z,26.90
2019-01-02T04:06:27.629Z,26.03
2019-01-02T04:08:58.080Z,27.77
2019-01-02T04:11:30.962Z,30.80
2019-01-02T04:14:01.457Z,19.07
2019-01-02T04:16:31.820Z,28.43
2019-01-02T04:19:02.452Z,18.33
2019-01-02T04:21:32.764Z,25.30
2019-01-02T04:24:03.093Z,24.33
2019-01-02T04:26:34.683Z,26.23
2019-01-02T04:29:05.083Z,23.07
2019-01-02T04:31:35.423Z,30.40
2019-01-02T04:34:06.079Z,31.73
2019-01-02T04:36:36.359Z,23.87
2019-01-02T04:39:07.739Z,27.27
2019-01-02T04:41:38.031Z,20.80
2019-01-02T04:44:08.495Z,26.57
2019-01-02T04:46:38.777Z,30.80
2019-01-02T04:49:09.032Z,29.83
2019-01-02T04:51:39.319Z,32.43
2019-01-02T04:54:09.607Z,30.67
2019-01-02T04:56:39.834Z,31.00
2019-01-02T04:59:10.103Z,25.83
2019-01-02T05:01:40.358Z,32.33
2019-01-02T05:04:10.672Z,31.57
2019-01-02T05:06:40.982Z,25.47
2019-01-02T05:09:12.444Z,24.63
2019-01-02T05:11:42.802Z,27.93
2019-01-02T05:14:13.160Z,29.13
2019-01-02T05:16:43.471Z,31.33
2019-01-02T05:19:13.763Z,23.90
2019-01-02T05:21:44.303Z,26.03
2019-01-02T05:24:14.596Z,27.33
2019-01-02T05:26:44.896Z,28.10
2019-01-02T05:29:15.218Z,22.57
2019-01-02T05:31:45.468Z,25.67
2019-01-02T05:34:16.190Z,23.93
2019-01-02T05:36:46.455Z,26.47
2019-01-02T05:39:18.380Z,27.43
2019-01-02T05:41:48.636Z,29.63
2019-01-02T05:44:18.940Z,23.97
2019-01-02T05:46:49.239Z,21.23
2019-01-02T05:49:19.748Z,24.30
2019-01-02T05:51:50.051Z,23.53
2019-01-02T05:54:20.412Z,24.03
2019-01-02T05:56:50.945Z,19.50
2019-01-02T05:59:21.252Z,18.73
2019-01-02T06:01:51.544Z,23.40
2019-01-02T06:04:21.887Z,23.27
2019-01-02T06:06:52.192Z,19.60
2019-01-02T06:09:22.565Z,23.50
2019-01-02T06:11:52.826Z,28.00
2019-01-02T06:14:23.152Z,21.63
2019-01-02T06:16:53.428Z,13.87
2019-01-02T06:19:23.784Z,19.50
2019-01-02T06:21:54.070Z,20.80
2019-01-02T06:24:24.337Z,17.97
2019-01-02T06:26:54.664Z,24.10
2019-01-02T06:29:25.154Z,18.23
2019-01-02T06:31:55.439Z,18.70
2019-01-02T06:34:25.786Z,18.23
2019-01-02T06:36:56.118Z,20.53
2019-01-02T06:39:26.584Z,21.10
2019-01-02T06:41:56.906Z,17.93
2019-01-02T06:44:27.364Z,21.37
2019-01-02T06:46:57.643Z,31.27
2019-01-02T06:49:27.953Z,20.10
2019-01-02T06:51:58.376Z,29.60
2019-01-02T06:54:28.712Z,22.90
2019-01-02T06:56:59.035Z,24.70
2019-01-02T06:59:29.364Z,27.17
2019-01-02T07:01:59.655Z,23.17
2019-01-02T07:04:29.903Z,24.10
2019-01-02T07:07:00.290Z,19.97
2019-01-02T07:09:30.692Z,21.73
2019-01-02T07:12:01.020Z,16.63
2019-01-02T07:14:31.336Z,26.57
2019-01-02T07:17:01.594Z,30.13
2019-01-02T07:19:31.954Z,35.50
2019-01-02T07:22:02.174Z,31.20
2019-01-02T07:24:32.568Z,25.03
2019-01-02T07:27:02.874Z,32.40
2019-01-02T07:29:33.226Z,40.27
2019-01-02T07:32:03.504Z,27.37
2019-01-02T07:35:00.934Z,29.87
2019-01-02T07:37:55.687Z,21.87
2019-01-02T07:41:06.051Z,18.80
2019-01-02T07:44:06.800Z,27.43
2019-01-02T07:47:26.439Z,21.67
2019-01-02T07:50:29.942Z,24.87
2019-01-02T07:53:34.199Z,28.13
2019-01-02T07:57:00.453Z,20.63
2019-01-02T08:00:04.208Z,36.77
2019-01-02T08:03:15.869Z,30.57
2019-01-02T08:06:23.540Z,24.47
2019-01-02T08:09:32.181Z,24.17
2019-01-02T08:12:18.965Z,29.80
2019-01-02T08:15:33.556Z,27.47
2019-01-02T08:18:22.391Z,22.00
2019-01-02T08:21:46.332Z,23.43
2019-01-02T08:24:35.079Z,22.33
2019-01-02T08:27:38.800Z,21.67
2019-01-02T08:30:30.181Z,29.60
2019-01-02T08:33:43.142Z,26.10
2019-01-02T08:36:19.755Z,26.07
2019-01-02T08:39:27.396Z,27.47
2019-01-02T08:43:06.106Z,24.93
2019-01-02T08:46:15.320Z,31.50
2019-01-02T08:49:28.383Z,25.20
2019-01-02T08:52:51.270Z,30.63
2019-01-02T08:55:58.545Z,24.27
2019-01-02T08:59:14.525Z,23.80
2019-01-02T09:02:09.499Z,38.57
2019-01-02T09:05:35.095Z,31.17
2019-01-02T09:08:57.567Z,19.07
2019-01-02T09:12:17.046Z,24.10
2019-01-02T09:15:18.383Z,36.67
2019-01-02T09:18:37.160Z,28.40
2019-01-02T09:22:13.292Z,28.97
2019-01-02T09:25:26.356Z,29.00
2019-01-02T09:28:29.786Z,38.63
2019-01-02T09:31:24.818Z,41.60
2019-01-02T09:34:57.798Z,27.83
2019-01-02T09:38:12.140Z,39.00
2019-01-02T09:41:22.340Z,28.20
2019-01-02T09:44:36.825Z,32.40
2019-01-02T09:47:54.356Z,32.63
2019-01-02T09:51:23.906Z,23.13
2019-01-02T09:54:45.401Z,31.83
2019-01-02T09:58:05.694Z,34.27
2019-01-02T10:01:20.629Z,39.70
2019-01-02T10:04:19.131Z,47.50
2019-01-02T10:07:17.132Z,36.47
2019-01-02T10:10:25.942Z,25.43
2019-01-02T10:13:20.797Z,34.30
2019-01-02T10:16:35.681Z,26.93
2019-01-02T10:19:43.015Z,28.97
2019-01-02T10:22:56.061Z,27.97
2019-01-02T10:25:49.235Z,24.53
2019-01-02T10:29:13.132Z,29.90
2019-01-02T10:32:38.317Z,23.53
2019-01-02T10:35:28.550Z,32.00
2019-01-02T10:38:44.465Z,24.00
2019-01-02T10:42:01.896Z,19.63
2019-01-02T10:45:19.360Z,31.37
2019-01-02T10:48:33.716Z,27.13
2019-01-02T10:51:20.881Z,20.53
2019-01-02T10:54:23.758Z,27.73
2019-01-02T10:57:24.906Z,23.77
2019-01-02T11:00:15.711Z,19.67
2019-01-02T11:03:25.005Z,22.77
2019-01-02T11:06:44.629Z,25.93
2019-01-02T11:09:44.933Z,21.33
2019-01-02T11:12:44.817Z,26.83
2019-01-02T11:16:07.935Z,22.27
2019-01-02T11:19:22.848Z,24.70
2019-01-02T11:22:39.831Z,25.57
2019-01-02T11:25:53.082Z,18.90
2019-01-02T11:29:12.158Z,27.97
2019-01-02T11:32:25.664Z,30.37
2019-01-02T11:35:25.109Z,35.23
2019-01-02T11:38:49.211Z,27.90
2019-01-02T11:41:33.469Z,28.87
2019-01-02T11:44:44.964Z,23.37
2019-01-02T11:47:15.302Z,23.83
2019-01-02T11:49:45.678Z,33.30
2019-01-02T11:52:16.012Z,18.13
2019-01-02T11:54:46.705Z,20.70
2019-01-02T11:57:17.028Z,24.57
2019-01-02T11:59:47.313Z,25.80
2019-01-02T12:02:17.578Z,26.03
2019-01-02T12:04:49.282Z,29.17
2019-01-02T12:07:21.406Z,34.23
2019-01-02T12:09:52.110Z,26.87
2019-01-02T12:12:22.485Z,27.97
2019-01-02T12:14:52.882Z,25.33
2019-01-02T12:17:23.329Z,24.67
2019-01-02T12:19:53.699Z,21.03
2019-01-02T12:22:24.106Z,19.40
2019-01-02T12:24:54.628Z,32.33
2019-01-02T12:27:25.159Z,20.83
2019-01-02T12:29:55.670Z,25.07
2019-01-02T12:32:26.000Z,25.07
2019-01-02T12:34:56.335Z,28.50
2019-01-02T12:37:26.743Z,26.80
2019-01-02T12:39:57.068Z,34.20
2019-01-02T12:42:27.368Z,33.33
2019-01-02T12:44:57.732Z,19.57
2019-01-02T12:47:28.007Z,21.33
2019-01-02T12:49:58.286Z,33.50
2019-01-02T12:52:28.628Z,24.07
2019-01-02T12:54:59.129Z,26.20
2019-01-02T12:57:29.342Z,30.00
2019-01-02T12:59:59.684Z,25.63
2019-01-02T13:03:16.754Z,28.47
2019-01-02T13:06:34.221Z,28.20
2019-01-02T13:10:00.425Z,32.73
2019-01-02T13:13:26.008Z,24.27
2019-01-02T13:16:34.994Z,24.47
2019-01-02T13:19:26.599Z,38.47
2019-01-02T13:22:38.055Z,26.00
2019-01-02T13:25:46.614Z,31.97
2019-01-02T13:29:13.017Z,26.27
2019-01-02T13:32:25.941Z,31.97
2019-01-02T13:35:08.465Z,24.50
2019-01-02T13:38:20.575Z,27.77
2019-01-02T13:41:46.144Z,31.10
2019-01-02T13:44:37.140Z,23.87
2019-01-02T13:48:09.597Z,27.93
2019-01-02T13:51:05.904Z,26.73
2019-01-02T13:53:36.181Z,32.57
2019-01-02T13:56:08.759Z,27.80
2019-01-02T13:58:39.423Z,22.63
2019-01-02T14:01:09.734Z,21.33
2019-01-02T14:03:40.127Z,26.60
2019-01-02T14:06:10.714Z,29.30
2019-01-02T14:08:41.039Z,24.77
2019-01-02T14:11:12.512Z,23.07
2019-01-02T14:13:43.430Z,22.13
2019-01-02T14:16:13.972Z,24.80
2019-01-02T14:18:44.419Z,28.87
2019-01-02T14:21:15.690Z,30.33
2019-01-02T14:23:46.181Z,19.03
2019-01-02T14:26:16.586Z,28.10
2019-01-02T14:28:47.016Z,24.93
2019-01-02T14:31:17.359Z,29.03
2019-01-02T14:33:47.695Z,28.90
2019-01-02T14:36:18.062Z,26.70
2019-01-02T14:38:48.496Z,34.77
2019-01-02T14:41:18.792Z,24.80
2019-01-02T14:43:49.127Z,18.57
2019-01-02T14:46:19.533Z,28.30
2019-01-02T14:48:49.864Z,27.90
2019-01-02T14:51:20.180Z,10.60
2019-01-02T14:53:50.550Z,20.00
2019-01-02T14:56:20.828Z,24.77
2019-01-02T14:58:51.200Z,16.17
2019-01-02T15:01:21.534Z,18.23
2019-01-02T15:03:51.878Z,21.83
2019-01-02T15:06:22.222Z,20.07
2019-01-02T15:08:52.497Z,16.47
2019-01-02T15:11:22.838Z,24.00
2019-01-02T15:13:53.281Z,14.17
2019-01-02T15:16:23.676Z,22.23
2019-01-02T15:18:54.013Z,25.10
2019-01-02T15:21:24.770Z,22.30
2019-01-02T15:23:55.133Z,23.47
2019-01-02T15:26:25.491Z,24.90
2019-01-02T15:28:55.744Z,23.13
2019-01-02T15:31:26.036Z,22.43
2019-01-02T15:33:56.315Z,24.90
2019-01-02T15:36:26.640Z,22.83
2019-01-02T15:38:58.074Z,24.77
2019-01-02T15:41:29.735Z,23.00
2019-01-02T15:44:00.043Z,26.37
2019-01-02T15:46:30.385Z,22.70
2019-01-02T15:49:03.175Z,29.80
2019-01-02T15:51:33.659Z,24.33
2019-01-02T15:54:04.123Z,25.17
2019-01-02T15:56:34.601Z,18.27
2019-01-02T15:59:05.030Z,29.00
2019-01-02T16:01:35.626Z,29.23
2019-01-02T16:04:06.009Z,19.33
2019-01-02T16:06:36.465Z,19.47
2019-01-02T16:09:08.467Z,23.60
2019-01-02T16:11:40.018Z,17.23
2019-01-02T16:14:10.442Z,21.07
2019-01-02T16:16:40.889Z,20.50
2019-01-02T16:19:11.230Z,15.40
2019-01-02T16:21:41.532Z,12.50
2019-01-02T16:24:11.785Z,32.50
2019-01-02T16:26:42.220Z,20.53
2019-01-02T16:29:16.379Z,15.63
2019-01-02T16:31:46.783Z,21.80
2019-01-02T16:34:17.241Z,14.37
2019-01-02T16:36:47.655Z,19.00
2019-01-02T16:39:18.198Z,16.67
2019-01-02T16:41:48.645Z,14.23
2019-01-02T16:44:19.208Z,17.23
2019-01-02T16:46:50.745Z,22.10
2019-01-02T16:49:21.319Z,20.97
2019-01-02T16:51:51.791Z,21.83
2019-01-02T16:54:23.434Z,23.17
2019-01-02T16:56:53.709Z,18.93
2019-01-02T16:59:24.074Z,16.63
2019-01-02T17:01:56.991Z,22.33
2019-01-02T17:04:29.146Z,27.03
2019-01-02T17:06:59.392Z,72.90
2019-01-02T17:09:29.747Z,40.70
2019-01-02T17:11:59.985Z,52.43
2019-01-02T17:14:30.452Z,16.67
2019-01-02T17:17:00.780Z,20.77
2019-01-02T17:19:32.768Z,26.07
2019-01-02T17:22:03.180Z,56.90
2019-01-02T17:24:33.484Z,21.67
2019-01-02T17:27:03.942Z,17.30
2019-01-02T17:29:34.387Z,18.03
2019-01-02T17:32:04.814Z,15.20
2019-01-02T17:34:35.162Z,19.43
2019-01-02T17:37:06.959Z,17.03
2019-01-02T17:39:37.316Z,18.50
2019-01-02T17:42:07.709Z,17.90
2019-01-02T17:44:38.790Z,25.63
2019-01-02T17:47:09.213Z,26.20
2019-01-02T17:49:39.765Z,18.63
2019-01-02T17:52:10.921Z,19.60
2019-01-02T17:54:41.609Z,18.60
2019-01-02T17:57:13.078Z,21.30
2019-01-02T17:59:43.966Z,23.13
2019-01-02T18:02:14.444Z,20.50
2019-01-02T18:04:45.226Z,26.93
2019-01-02T18:07:15.708Z,26.83
2019-01-02T18:09:46.413Z,27.97
2019-01-02T18:12:19.941Z,29.60
2019-01-02T18:14:50.707Z,22.43
2019-01-02T18:17:21.820Z,28.13
2019-01-02T18:19:52.510Z,28.50
2019-01-02T18:22:22.939Z,20.47
2019-01-02T18:24:58.172Z,35.00
2019-01-02T18:27:28.463Z,45.87
2019-01-02T18:29:59.643Z,25.90
2019-01-02T18:32:30.995Z,26.63
2019-01-02T18:35:01.780Z,12.03
2019-01-02T18:37:32.288Z,23.33
2019-01-02T18:40:02.931Z,22.17
2019-01-02T18:42:33.253Z,23.03
2019-01-02T18:45:09.849Z,20.00
2019-01-02T18:47:43.834Z,23.83
2019-01-02T18:50:14.660Z,17.20
2019-01-02T18:52:45.537Z,21.53
2019-01-02T18:55:15.919Z,14.23
2019-01-02T18:58:39.774Z,25.50
2019-01-02T19:02:00.691Z,20.37
2019-01-02T19:05:50.514Z,21.10
2019-01-02T19:09:24.381Z,23.03
2019-01-02T19:13:28.332Z,18.90
2019-01-02T19:16:36.740Z,22.67
2019-01-02T19:20:04.309Z,20.83
2019-01-02T19:22:34.175Z,16.50
2019-01-02T19:25:04.519Z,27.93
2019-01-02T19:27:35.257Z,24.23
2019-01-02T19:30:06.087Z,24.07
2019-01-02T19:32:36.392Z,23.97
2019-01-02T19:35:07.301Z,22.37
2019-01-02T19:37:37.617Z,13.73
2019-01-02T19:40:08.085Z,21.30
2019-01-02T19:42:38.399Z,23.33
2019-01-02T19:45:09.783Z,24.47
2019-01-02T19:47:40.202Z,25.23
2019-01-02T19:50:10.575Z,19.47
2019-01-02T19:52:40.971Z,21.27
2019-01-02T19:55:11.751Z,32.73
2019-01-02T19:57:42.159Z,22.47
2019-01-02T20:00:12.947Z,37.90
2019-01-02T20:02:43.232Z,28.13
2019-01-02T20:05:13.676Z,25.07
2019-01-02T20:07:44.083Z,19.83
2019-01-02T20:10:14.356Z,21.33
2019-01-02T20:12:44.690Z,15.03
2019-01-02T20:15:15.079Z,16.03
2019-01-02T20:17:45.570Z,17.23
2019-01-02T20:20:16.071Z,16.63
2019-01-02T20:22:46.552Z,18.30
2019-01-02T20:25:16.902Z,16.80
2019-01-02T20:27:48.595Z,14.47
2019-01-02T20:30:19.026Z,12.67
2019-01-02T20:32:49.431Z,10.83
2019-01-02T20:35:19.888Z,9.70
2019-01-02T20:37:51.832Z,15.97
2019-01-02T20:40:22.209Z,14.30
2019-01-02T20:42:52.640Z,12.77
2019-01-02T20:45:24.653Z,10.77
2019-01-02T20:47:56.528Z,16.47
2019-01-02T20:50:26.911Z,12.40
2019-01-02T20:52:57.329Z,9.50
2019-01-02T20:55:28.184Z,13.47
2019-01-02T20:58:00.095Z,14.50
2019-01-02T21:00:30.437Z,13.10
2019-01-02T21:03:01.855Z,11.27
2019-01-02T21:05:32.231Z,9.57
2019-01-02T21:08:02.550Z,13.70
2019-01-02T21:10:33.070Z,12.90
2019-01-02T21:13:03.691Z,9.87
2019-01-02T21:15:35.103Z,8.33
2019-01-02T21:18:06.912Z,15.53
2019-01-02T21:20:37.278Z,15.97
2019-01-02T21:23:07.666Z,9.67
2019-01-02T21:25:37.969Z,9.83
2019-01-02T21:28:08.370Z,9.50
2019-01-02T21:30:38.689Z,5.27
2019-01-02T21:33:10.324Z,18.23
2019-01-02T21:35:40.702Z,8.20
2019-01-02T21:38:11.130Z,11.10
2019-01-02T21:40:41.542Z,8.97
2019-01-02T21:43:11.985Z,9.93
2019-01-02T21:45:42.348Z,9.87
2019-01-02T21:48:12.642Z,9.53
2019-01-02T21:50:44.176Z,16.27
2019-01-02T21:53:14.499Z,7.87
2019-01-02T21:55:44.840Z,7.90
2019-01-02T21:58:15.414Z,10.63
2019-01-02T22:00:45.946Z,12.50
2019-01-02T22:03:18.420Z,19.77
2019-01-02T22:05:49.232Z,7.77
2019-01-02T22:08:19.677Z,9.63
2019-01-02T22:10:50.540Z,10.03
2019-01-02T22:13:28.624Z,7.07
2019-01-02T22:15:59.422Z,9.63
2019-01-02T22:18:29.984Z,12.87
2019-01-02T22:21:00.358Z,11.80
2019-01-02T22:23:30.661Z,6.03
2019-01-02T22:26:02.342Z,13.00
2019-01-02T22:28:34.224Z,9.93
2019-01-02T22:31:06.901Z,6.80
2019-01-02T22:33:37.164Z,11.10
2019-01-02T22:36:08.464Z,10.27
2019-01-02T22:38:39.083Z,10.03
2019-01-02T22:41:09.440Z,17.33
2019-01-02T22:43:40.084Z,11.53
2019-01-02T22:46:10.467Z,12.43
2019-01-02T22:48:40.877Z,11.63
2019-01-02T22:51:11.299Z,10.30
2019-01-02T22:53:43.116Z,9.70
2019-01-02T22:56:13.472Z,15.73
2019-01-02T22:58:44.200Z,12.10
2019-01-02T23:01:21.608Z,11.70
2019-01-02T23:04:03.963Z,10.67
2019-01-02T23:06:53.181Z,14.57
2019-01-02T23:09:52.126Z,6.03
2019-01-02T23:12:59.587Z,12.13
2019-01-02T23:15:57.698Z,10.43
2019-01-02T23:18:45.595Z,20.53
2019-01-02T23:21:42.522Z,10.20
2019-01-02T23:24:30.550Z,11.57
2019-01-02T23:27:32.079Z,11.47
2019-01-02T23:30:21.357Z,13.47
2019-01-02T23:33:09.371Z,16.00
2019-01-02T23:35:57.575Z,10.07
2019-01-02T23:39:03.631Z,14.97
2019-01-02T23:42:00.417Z,13.97
2019-01-02T23:44:52.241Z,17.03
2019-01-02T23:47:50.801Z,11.47
2019-01-02T23:50:43.201Z,10.23
2019-01-02T23:53:41.381Z,13.43
2019-01-02T23:56:41.482Z,18.50
2019-01-02T23:59:42.878Z,11.67
